sensor_id;sensor_type;location;lat;lon;timestamp;temperature;humidity
8965;DHT22;4517;49.020;12.066;2022-08-01T00:01:43;19.90;81.60
8965;DHT22;4517;49.020;12.066;2022-08-01T00:04:09;19.90;81.80
8965;DHT22;4517;49.020;12.066;2022-08-01T00:06:35;19.90;81.90
8965;DHT22;4517;49.020;12.066;2022-08-01T00:09:00;19.90;82.30
8965;DHT22;4517;49.020;12.066;2022-08-01T00:11:26;19.90;82.70
8965;DHT22;4517;49.020;12.066;2022-08-01T00:13:52;19.90;82.90
8965;DHT22;4517;49.020;12.066;2022-08-01T00:16:17;19.80;82.60
8965;DHT22;4517;49.020;12.066;2022-08-01T00:18:43;19.80;83.00
8965;DHT22;4517;49.020;12.066;2022-08-01T00:21:09;19.80;82.60
8965;DHT22;4517;49.020;12.066;2022-08-01T00:23:34;19.70;82.50
8965;DHT22;4517;49.020;12.066;2022-08-01T00:26:00;19.70;82.80
8965;DHT22;4517;49.020;12.066;2022-08-01T00:28:27;19.70;83.10
8965;DHT22;4517;49.020;12.066;2022-08-01T00:30:52;19.70;83.00
8965;DHT22;4517;49.020;12.066;2022-08-01T00:33:18;19.70;83.00
8965;DHT22;4517;49.020;12.066;2022-08-01T00:35:43;19.70;83.10
8965;DHT22;4517;49.020;12.066;2022-08-01T00:38:09;19.70;83.30
8965;DHT22;4517;49.020;12.066;2022-08-01T00:40:36;19.60;83.70
8965;DHT22;4517;49.020;12.066;2022-08-01T00:43:01;19.60;84.30
8965;DHT22;4517;49.020;12.066;2022-08-01T00:45:27;19.50;84.70
8965;DHT22;4517;49.020;12.066;2022-08-01T00:47:52;19.50;85.60
8965;DHT22;4517;49.020;12.066;2022-08-01T00:50:18;19.40;85.30
8965;DHT22;4517;49.020;12.066;2022-08-01T00:52:44;19.30;85.50
8965;DHT22;4517;49.020;12.066;2022-08-01T00:55:10;19.20;86.60
8965;DHT22;4517;49.020;12.066;2022-08-01T00:57:37;19.10;86.80
8965;DHT22;4517;49.020;12.066;2022-08-01T01:00:05;19.00;87.50
8965;DHT22;4517;49.020;12.066;2022-08-01T01:02:31;18.90;88.50
8965;DHT22;4517;49.020;12.066;2022-08-01T01:04:57;18.90;89.50
8965;DHT22;4517;49.020;12.066;2022-08-01T01:07:35;18.80;90.10
8965;DHT22;4517;49.020;12.066;2022-08-01T01:10:15;18.80;90.40
8965;DHT22;4517;49.020;12.066;2022-08-01T01:12:55;18.70;90.60
8965;DHT22;4517;49.020;12.066;2022-08-01T01:18:13;18.80;90.80
8965;DHT22;4517;49.020;12.066;2022-08-01T01:20:42;18.70;91.00
8965;DHT22;4517;49.020;12.066;2022-08-01T01:23:19;18.50;91.30
8965;DHT22;4517;49.020;12.066;2022-08-01T01:26:30;18.50;91.40
8965;DHT22;4517;49.020;12.066;2022-08-01T01:29:12;18.50;91.70
8965;DHT22;4517;49.020;12.066;2022-08-01T01:31:48;18.50;91.90
8965;DHT22;4517;49.020;12.066;2022-08-01T01:34:18;18.40;92.20
8965;DHT22;4517;49.020;12.066;2022-08-01T01:36:46;18.30;92.40
8965;DHT22;4517;49.020;12.066;2022-08-01T01:39:13;18.30;92.70
8965;DHT22;4517;49.020;12.066;2022-08-01T01:41:40;18.40;92.80
8965;DHT22;4517;49.020;12.066;2022-08-01T01:44:08;18.40;93.00
8965;DHT22;4517;49.020;12.066;2022-08-01T01:46:36;18.50;93.00
8965;DHT22;4517;49.020;12.066;2022-08-01T01:49:02;18.60;92.80
8965;DHT22;4517;49.020;12.066;2022-08-01T01:51:29;18.60;92.80
8965;DHT22;4517;49.020;12.066;2022-08-01T01:53:56;18.60;92.70
8965;DHT22;4517;49.020;12.066;2022-08-01T01:56:24;18.70;92.50
8965;DHT22;4517;49.020;12.066;2022-08-01T01:58:56;18.70;92.40
8965;DHT22;4517;49.020;12.066;2022-08-01T02:01:25;18.60;92.30
8965;DHT22;4517;49.020;12.066;2022-08-01T02:03:52;18.70;92.30
8965;DHT22;4517;49.020;12.066;2022-08-01T02:06:19;18.80;92.00
8965;DHT22;4517;49.020;12.066;2022-08-01T02:08:45;18.90;92.00
8965;DHT22;4517;49.020;12.066;2022-08-01T02:11:12;18.90;91.80
8965;DHT22;4517;49.020;12.066;2022-08-01T02:13:50;18.90;91.80
8965;DHT22;4517;49.020;12.066;2022-08-01T02:16:18;19.00;91.50
8965;DHT22;4517;49.020;12.066;2022-08-01T02:18:44;18.90;91.50
8965;DHT22;4517;49.020;12.066;2022-08-01T02:21:12;18.90;91.60
8965;DHT22;4517;49.020;12.066;2022-08-01T02:23:40;18.90;91.90
8965;DHT22;4517;49.020;12.066;2022-08-01T02:26:13;18.90;91.80
8965;DHT22;4517;49.020;12.066;2022-08-01T02:29:01;18.80;91.90
8965;DHT22;4517;49.020;12.066;2022-08-01T02:31:32;18.90;91.50
8965;DHT22;4517;49.020;12.066;2022-08-01T02:34:03;18.90;91.30
8965;DHT22;4517;49.020;12.066;2022-08-01T02:36:35;18.90;90.90
8965;DHT22;4517;49.020;12.066;2022-08-01T02:39:06;18.90;90.60
8965;DHT22;4517;49.020;12.066;2022-08-01T02:41:35;18.90;90.30
8965;DHT22;4517;49.020;12.066;2022-08-01T02:44:03;18.80;90.30
8965;DHT22;4517;49.020;12.066;2022-08-01T02:46:37;18.80;90.00
8965;DHT22;4517;49.020;12.066;2022-08-01T02:49:06;18.80;89.80
8965;DHT22;4517;49.020;12.066;2022-08-01T02:51:33;18.90;88.80
8965;DHT22;4517;49.020;12.066;2022-08-01T02:54:02;18.90;88.20
8965;DHT22;4517;49.020;12.066;2022-08-01T02:56:29;18.90;88.00
8965;DHT22;4517;49.020;12.066;2022-08-01T02:59:08;19.00;87.00
8965;DHT22;4517;49.020;12.066;2022-08-01T03:01:35;19.00;86.80
8965;DHT22;4517;49.020;12.066;2022-08-01T03:04:01;19.10;86.20
8965;DHT22;4517;49.020;12.066;2022-08-01T03:06:29;19.20;86.10
8965;DHT22;4517;49.020;12.066;2022-08-01T03:08:56;19.30;85.40
8965;DHT22;4517;49.020;12.066;2022-08-01T03:11:23;19.40;84.40
8965;DHT22;4517;49.020;12.066;2022-08-01T03:13:52;19.50;83.90
8965;DHT22;4517;49.020;12.066;2022-08-01T03:16:21;19.50;83.20
8965;DHT22;4517;49.020;12.066;2022-08-01T03:18:48;19.60;82.00
8965;DHT22;4517;49.020;12.066;2022-08-01T03:21:15;19.80;81.50
8965;DHT22;4517;49.020;12.066;2022-08-01T03:23:42;20.00;79.00
8965;DHT22;4517;49.020;12.066;2022-08-01T03:26:09;20.10;79.20
8965;DHT22;4517;49.020;12.066;2022-08-01T03:28:36;20.20;79.00
8965;DHT22;4517;49.020;12.066;2022-08-01T03:31:04;20.30;78.30
8965;DHT22;4517;49.020;12.066;2022-08-01T03:33:30;20.40;77.10
8965;DHT22;4517;49.020;12.066;2022-08-01T03:35:56;20.40;76.50
8965;DHT22;4517;49.020;12.066;2022-08-01T03:38:27;20.60;75.50
8965;DHT22;4517;49.020;12.066;2022-08-01T03:41:02;20.70;74.80
8965;DHT22;4517;49.020;12.066;2022-08-01T03:43:36;20.70;74.40
8965;DHT22;4517;49.020;12.066;2022-08-01T03:46:08;20.70;74.10
8965;DHT22;4517;49.020;12.066;2022-08-01T03:48:39;20.80;73.80
8965;DHT22;4517;49.020;12.066;2022-08-01T03:51:06;20.80;73.70
8965;DHT22;4517;49.020;12.066;2022-08-01T03:53:33;20.80;73.50
8965;DHT22;4517;49.020;12.066;2022-08-01T03:56:00;20.80;73.30
8965;DHT22;4517;49.020;12.066;2022-08-01T03:58:30;20.80;73.20
8965;DHT22;4517;49.020;12.066;2022-08-01T04:00:56;20.90;73.10
8965;DHT22;4517;49.020;12.066;2022-08-01T04:03:22;20.80;72.80
8965;DHT22;4517;49.020;12.066;2022-08-01T04:05:48;20.80;73.00
8965;DHT22;4517;49.020;12.066;2022-08-01T04:08:14;20.70;72.90
8965;DHT22;4517;49.020;12.066;2022-08-01T04:10:39;20.80;72.80
8965;DHT22;4517;49.020;12.066;2022-08-01T04:13:05;20.90;72.80
8965;DHT22;4517;49.020;12.066;2022-08-01T04:15:31;21.10;72.70
8965;DHT22;4517;49.020;12.066;2022-08-01T04:17:56;21.40;72.10
8965;DHT22;4517;49.020;12.066;2022-08-01T04:20:22;21.70;71.80
8965;DHT22;4517;49.020;12.066;2022-08-01T04:22:48;22.20;70.70
8965;DHT22;4517;49.020;12.066;2022-08-01T04:25:27;22.90;69.50
8965;DHT22;4517;49.020;12.066;2022-08-01T04:27:57;23.20;68.70
8965;DHT22;4517;49.020;12.066;2022-08-01T04:30:27;22.80;68.70
8965;DHT22;4517;49.020;12.066;2022-08-01T04:32:55;22.40;69.00
8965;DHT22;4517;49.020;12.066;2022-08-01T04:35:24;22.10;70.20
8965;DHT22;4517;49.020;12.066;2022-08-01T04:37:51;21.90;70.10
8965;DHT22;4517;49.020;12.066;2022-08-01T04:40:19;21.70;70.20
8965;DHT22;4517;49.020;12.066;2022-08-01T04:42:48;21.70;70.60
8965;DHT22;4517;49.020;12.066;2022-08-01T04:45:14;21.70;70.60
8965;DHT22;4517;49.020;12.066;2022-08-01T04:47:40;21.70;70.60
8965;DHT22;4517;49.020;12.066;2022-08-01T04:50:08;21.70;70.80
8965;DHT22;4517;49.020;12.066;2022-08-01T04:52:36;21.80;70.90
8965;DHT22;4517;49.020;12.066;2022-08-01T04:55:03;21.80;70.80
8965;DHT22;4517;49.020;12.066;2022-08-01T04:57:29;21.90;70.80
8965;DHT22;4517;49.020;12.066;2022-08-01T04:59:54;21.90;70.70
8965;DHT22;4517;49.020;12.066;2022-08-01T05:02:22;22.00;70.70
8965;DHT22;4517;49.020;12.066;2022-08-01T05:04:49;22.00;70.60
8965;DHT22;4517;49.020;12.066;2022-08-01T05:07:15;22.10;70.70
8965;DHT22;4517;49.020;12.066;2022-08-01T05:09:41;22.00;70.50
8965;DHT22;4517;49.020;12.066;2022-08-01T05:12:08;22.00;70.50
8965;DHT22;4517;49.020;12.066;2022-08-01T05:14:35;22.00;70.80
8965;DHT22;4517;49.020;12.066;2022-08-01T05:17:02;22.00;70.70
8965;DHT22;4517;49.020;12.066;2022-08-01T05:19:33;22.10;70.70
8965;DHT22;4517;49.020;12.066;2022-08-01T05:21:59;22.20;70.80
8965;DHT22;4517;49.020;12.066;2022-08-01T05:24:27;22.30;70.60
8965;DHT22;4517;49.020;12.066;2022-08-01T05:26:54;22.50;70.50
8965;DHT22;4517;49.020;12.066;2022-08-01T05:29:19;23.00;69.90
8965;DHT22;4517;49.020;12.066;2022-08-01T05:31:45;24.30;68.70
8965;DHT22;4517;49.020;12.066;2022-08-01T05:34:11;25.00;67.20
8965;DHT22;4517;49.020;12.066;2022-08-01T05:36:36;25.80;66.40
8965;DHT22;4517;49.020;12.066;2022-08-01T05:39:03;26.90;63.80
8965;DHT22;4517;49.020;12.066;2022-08-01T05:41:29;27.50;62.10
8965;DHT22;4517;49.020;12.066;2022-08-01T05:43:55;28.00;60.90
8965;DHT22;4517;49.020;12.066;2022-08-01T05:46:20;28.00;60.40
8965;DHT22;4517;49.020;12.066;2022-08-01T05:48:46;28.20;59.90
8965;DHT22;4517;49.020;12.066;2022-08-01T05:51:11;27.50;60.10
8965;DHT22;4517;49.020;12.066;2022-08-01T05:53:37;26.40;61.70
8965;DHT22;4517;49.020;12.066;2022-08-01T05:56:03;25.30;63.70
8965;DHT22;4517;49.020;12.066;2022-08-01T05:58:28;24.70;65.40
8965;DHT22;4517;49.020;12.066;2022-08-01T06:00:54;25.30;65.50
8965;DHT22;4517;49.020;12.066;2022-08-01T06:03:19;26.20;63.70
8965;DHT22;4517;49.020;12.066;2022-08-01T06:05:45;27.00;62.20
8965;DHT22;4517;49.020;12.066;2022-08-01T06:08:10;27.10;61.60
8965;DHT22;4517;49.020;12.066;2022-08-01T06:10:36;27.30;60.80
8965;DHT22;4517;49.020;12.066;2022-08-01T06:13:02;27.70;60.10
8965;DHT22;4517;49.020;12.066;2022-08-01T06:15:32;27.90;59.80
8965;DHT22;4517;49.020;12.066;2022-08-01T06:17:57;28.00;59.70
8965;DHT22;4517;49.020;12.066;2022-08-01T06:20:23;28.40;59.50
8965;DHT22;4517;49.020;12.066;2022-08-01T06:22:49;28.10;59.50
8965;DHT22;4517;49.020;12.066;2022-08-01T06:25:19;28.30;59.40
8965;DHT22;4517;49.020;12.066;2022-08-01T06:27:45;28.20;59.50
8965;DHT22;4517;49.020;12.066;2022-08-01T06:30:11;28.00;59.50
8965;DHT22;4517;49.020;12.066;2022-08-01T06:32:36;27.60;59.90
8965;DHT22;4517;49.020;12.066;2022-08-01T06:35:03;27.40;60.50
8965;DHT22;4517;49.020;12.066;2022-08-01T06:37:32;27.30;61.30
8965;DHT22;4517;49.020;12.066;2022-08-01T06:40:05;26.90;61.20
8965;DHT22;4517;49.020;12.066;2022-08-01T06:42:31;27.10;61.60
8965;DHT22;4517;49.020;12.066;2022-08-01T06:45:03;27.30;61.10
8965;DHT22;4517;49.020;12.066;2022-08-01T06:47:29;27.40;61.40
8965;DHT22;4517;49.020;12.066;2022-08-01T06:49:54;27.70;61.10
8965;DHT22;4517;49.020;12.066;2022-08-01T06:52:20;27.20;60.20
8965;DHT22;4517;49.020;12.066;2022-08-01T06:54:45;26.20;62.30
8965;DHT22;4517;49.020;12.066;2022-08-01T06:57:12;25.80;63.60
8965;DHT22;4517;49.020;12.066;2022-08-01T06:59:37;25.40;64.40
8965;DHT22;4517;49.020;12.066;2022-08-01T07:02:03;25.20;64.80
8965;DHT22;4517;49.020;12.066;2022-08-01T07:04:29;25.00;65.80
8965;DHT22;4517;49.020;12.066;2022-08-01T07:06:55;24.80;65.80
8965;DHT22;4517;49.020;12.066;2022-08-01T07:09:21;24.60;66.30
8965;DHT22;4517;49.020;12.066;2022-08-01T07:11:46;24.70;66.40
8965;DHT22;4517;49.020;12.066;2022-08-01T07:14:12;24.80;66.90
8965;DHT22;4517;49.020;12.066;2022-08-01T07:16:37;24.80;66.60
8965;DHT22;4517;49.020;12.066;2022-08-01T07:19:03;25.10;66.60
8965;DHT22;4517;49.020;12.066;2022-08-01T07:21:29;25.30;66.60
8965;DHT22;4517;49.020;12.066;2022-08-01T07:23:55;25.20;66.20
8965;DHT22;4517;49.020;12.066;2022-08-01T07:26:20;25.00;66.80
8965;DHT22;4517;49.020;12.066;2022-08-01T07:28:46;24.90;67.40
8965;DHT22;4517;49.020;12.066;2022-08-01T07:31:11;24.90;67.90
8965;DHT22;4517;49.020;12.066;2022-08-01T07:33:37;24.90;67.40
8965;DHT22;4517;49.020;12.066;2022-08-01T07:36:02;24.80;67.20
8965;DHT22;4517;49.020;12.066;2022-08-01T07:38:29;24.80;67.20
8965;DHT22;4517;49.020;12.066;2022-08-01T07:40:54;24.90;67.60
8965;DHT22;4517;49.020;12.066;2022-08-01T07:43:20;25.00;67.20
8965;DHT22;4517;49.020;12.066;2022-08-01T07:45:46;24.90;67.20
8965;DHT22;4517;49.020;12.066;2022-08-01T07:48:11;24.80;67.40
8965;DHT22;4517;49.020;12.066;2022-08-01T07:50:37;24.60;67.70
8965;DHT22;4517;49.020;12.066;2022-08-01T07:53:03;24.50;68.30
8965;DHT22;4517;49.020;12.066;2022-08-01T07:55:29;24.60;68.40
8965;DHT22;4517;49.020;12.066;2022-08-01T07:57:55;24.90;68.40
8965;DHT22;4517;49.020;12.066;2022-08-01T08:00:20;25.00;67.50
8965;DHT22;4517;49.020;12.066;2022-08-01T08:02:46;25.00;67.40
8965;DHT22;4517;49.020;12.066;2022-08-01T08:05:12;25.10;68.10
8965;DHT22;4517;49.020;12.066;2022-08-01T08:07:38;25.10;67.10
8965;DHT22;4517;49.020;12.066;2022-08-01T08:10:04;25.20;67.60
8965;DHT22;4517;49.020;12.066;2022-08-01T08:12:30;25.10;67.20
8965;DHT22;4517;49.020;12.066;2022-08-01T08:14:56;25.00;67.00
8965;DHT22;4517;49.020;12.066;2022-08-01T08:17:24;24.90;67.40
8965;DHT22;4517;49.020;12.066;2022-08-01T08:19:50;25.10;67.70
8965;DHT22;4517;49.020;12.066;2022-08-01T08:22:15;25.20;67.30
8965;DHT22;4517;49.020;12.066;2022-08-01T08:24:41;25.50;67.10
8965;DHT22;4517;49.020;12.066;2022-08-01T08:27:06;26.00;66.20
8965;DHT22;4517;49.020;12.066;2022-08-01T08:29:33;26.30;65.10
8965;DHT22;4517;49.020;12.066;2022-08-01T08:31:59;26.40;63.90
8965;DHT22;4517;49.020;12.066;2022-08-01T08:34:26;26.00;64.40
8965;DHT22;4517;49.020;12.066;2022-08-01T08:36:53;26.00;64.80
8965;DHT22;4517;49.020;12.066;2022-08-01T08:39:20;26.00;64.50
8965;DHT22;4517;49.020;12.066;2022-08-01T08:41:46;26.20;64.20
8965;DHT22;4517;49.020;12.066;2022-08-01T08:44:12;26.50;64.20
8965;DHT22;4517;49.020;12.066;2022-08-01T08:46:41;26.50;63.90
8965;DHT22;4517;49.020;12.066;2022-08-01T08:49:08;26.80;64.00
8965;DHT22;4517;49.020;12.066;2022-08-01T08:51:34;26.90;62.90
8965;DHT22;4517;49.020;12.066;2022-08-01T08:54:04;26.70;62.80
8965;DHT22;4517;49.020;12.066;2022-08-01T08:56:31;26.40;63.60
8965;DHT22;4517;49.020;12.066;2022-08-01T08:59:00;26.20;63.90
8965;DHT22;4517;49.020;12.066;2022-08-01T09:01:26;26.40;63.80
8965;DHT22;4517;49.020;12.066;2022-08-01T09:03:53;26.40;63.40
8965;DHT22;4517;49.020;12.066;2022-08-01T09:06:18;26.60;63.50
8965;DHT22;4517;49.020;12.066;2022-08-01T09:08:44;26.80;62.80
8965;DHT22;4517;49.020;12.066;2022-08-01T09:11:10;26.90;62.90
8965;DHT22;4517;49.020;12.066;2022-08-01T09:13:35;27.00;62.70
8965;DHT22;4517;49.020;12.066;2022-08-01T09:16:01;27.10;62.60
8965;DHT22;4517;49.020;12.066;2022-08-01T09:23:36;27.50;60.70
8965;DHT22;4517;49.020;12.066;2022-08-01T09:26:05;27.50;60.10
8965;DHT22;4517;49.020;12.066;2022-08-01T09:28:31;27.70;60.60
8965;DHT22;4517;49.020;12.066;2022-08-01T09:30:57;28.40;59.80
8965;DHT22;4517;49.020;12.066;2022-08-01T09:33:23;28.50;59.40
8965;DHT22;4517;49.020;12.066;2022-08-01T09:35:56;28.10;59.50
8965;DHT22;4517;49.020;12.066;2022-08-01T09:38:24;27.30;59.20
8965;DHT22;4517;49.020;12.066;2022-08-01T09:40:59;26.90;59.30
8965;DHT22;4517;49.020;12.066;2022-08-01T09:43:27;26.60;59.90
8965;DHT22;4517;49.020;12.066;2022-08-01T09:45:53;26.70;59.80
8965;DHT22;4517;49.020;12.066;2022-08-01T09:48:21;26.70;59.40
8965;DHT22;4517;49.020;12.066;2022-08-01T09:50:49;26.60;58.90
8965;DHT22;4517;49.020;12.066;2022-08-01T09:53:15;26.40;59.40
8965;DHT22;4517;49.020;12.066;2022-08-01T09:55:41;26.50;59.70
8965;DHT22;4517;49.020;12.066;2022-08-01T09:58:08;26.80;59.80
8965;DHT22;4517;49.020;12.066;2022-08-01T10:00:34;27.20;59.60
8965;DHT22;4517;49.020;12.066;2022-08-01T10:03:22;27.60;59.40
8965;DHT22;4517;49.020;12.066;2022-08-01T10:05:48;27.90;59.10
8965;DHT22;4517;49.020;12.066;2022-08-01T10:08:14;28.20;58.60
8965;DHT22;4517;49.020;12.066;2022-08-01T10:10:40;28.10;58.60
8965;DHT22;4517;49.020;12.066;2022-08-01T10:13:06;28.10;58.30
8965;DHT22;4517;49.020;12.066;2022-08-01T10:15:33;28.30;58.00
8965;DHT22;4517;49.020;12.066;2022-08-01T10:18:02;27.90;57.90
8965;DHT22;4517;49.020;12.066;2022-08-01T10:20:31;28.10;58.00
8965;DHT22;4517;49.020;12.066;2022-08-01T10:23:04;28.30;58.30
8965;DHT22;4517;49.020;12.066;2022-08-01T10:25:35;28.70;57.80
8965;DHT22;4517;49.020;12.066;2022-08-01T10:28:09;29.20;57.40
8965;DHT22;4517;49.020;12.066;2022-08-01T10:30:35;29.50;57.20
8965;DHT22;4517;49.020;12.066;2022-08-01T10:33:01;29.80;57.10
8965;DHT22;4517;49.020;12.066;2022-08-01T10:35:28;29.80;56.60
8965;DHT22;4517;49.020;12.066;2022-08-01T10:37:54;29.90;56.40
8965;DHT22;4517;49.020;12.066;2022-08-01T10:40:23;29.40;55.00
8965;DHT22;4517;49.020;12.066;2022-08-01T10:42:50;28.90;54.80
8965;DHT22;4517;49.020;12.066;2022-08-01T10:45:16;28.80;55.00
8965;DHT22;4517;49.020;12.066;2022-08-01T10:47:57;28.50;55.00
8965;DHT22;4517;49.020;12.066;2022-08-01T10:50:27;28.20;55.30
8965;DHT22;4517;49.020;12.066;2022-08-01T10:53:24;28.40;55.20
8965;DHT22;4517;49.020;12.066;2022-08-01T10:58:28;28.50;54.90
8965;DHT22;4517;49.020;12.066;2022-08-01T11:03:38;28.20;54.90
8965;DHT22;4517;49.020;12.066;2022-08-01T11:06:04;28.00;55.20
8965;DHT22;4517;49.020;12.066;2022-08-01T11:08:31;27.90;55.60
8965;DHT22;4517;49.020;12.066;2022-08-01T11:11:01;28.20;55.60
8965;DHT22;4517;49.020;12.066;2022-08-01T11:16:31;28.00;55.50
8965;DHT22;4517;49.020;12.066;2022-08-01T11:18:57;28.10;55.60
8965;DHT22;4517;49.020;12.066;2022-08-01T11:27:30;28.30;55.70
8965;DHT22;4517;49.020;12.066;2022-08-01T11:32:57;27.80;56.10
8965;DHT22;4517;49.020;12.066;2022-08-01T11:35:24;27.90;55.90
8965;DHT22;4517;49.020;12.066;2022-08-01T11:37:53;28.10;55.40
8965;DHT22;4517;49.020;12.066;2022-08-01T11:40:25;27.90;55.30
8965;DHT22;4517;49.020;12.066;2022-08-01T11:45:52;28.60;55.20
8965;DHT22;4517;49.020;12.066;2022-08-01T11:48:27;29.10;54.70
8965;DHT22;4517;49.020;12.066;2022-08-01T11:50:57;29.30;54.20
8965;DHT22;4517;49.020;12.066;2022-08-01T11:53:23;29.60;53.70
8965;DHT22;4517;49.020;12.066;2022-08-01T11:55:53;29.50;54.00
8965;DHT22;4517;49.020;12.066;2022-08-01T11:58:24;29.50;53.80
8965;DHT22;4517;49.020;12.066;2022-08-01T12:00:54;29.00;53.70
8965;DHT22;4517;49.020;12.066;2022-08-01T12:03:28;29.10;53.40
8965;DHT22;4517;49.020;12.066;2022-08-01T12:05:55;29.30;53.70
8965;DHT22;4517;49.020;12.066;2022-08-01T12:08:28;30.00;53.40
8965;DHT22;4517;49.020;12.066;2022-08-01T12:10:54;30.50;53.10
8965;DHT22;4517;49.020;12.066;2022-08-01T12:13:20;30.70;51.80
8965;DHT22;4517;49.020;12.066;2022-08-01T12:15:47;30.40;52.00
8965;DHT22;4517;49.020;12.066;2022-08-01T12:18:13;30.10;51.80
8965;DHT22;4517;49.020;12.066;2022-08-01T12:20:40;29.70;51.70
8965;DHT22;4517;49.020;12.066;2022-08-01T12:23:11;29.50;52.30
8965;DHT22;4517;49.020;12.066;2022-08-01T12:25:37;29.40;52.70
8965;DHT22;4517;49.020;12.066;2022-08-01T12:28:10;29.60;52.70
8965;DHT22;4517;49.020;12.066;2022-08-01T12:30:36;29.50;52.80
8965;DHT22;4517;49.020;12.066;2022-08-01T12:33:05;29.70;52.60
8965;DHT22;4517;49.020;12.066;2022-08-01T12:35:31;29.80;52.30
8965;DHT22;4517;49.020;12.066;2022-08-01T12:38:04;29.80;52.50
8965;DHT22;4517;49.020;12.066;2022-08-01T12:40:32;29.90;52.50
8965;DHT22;4517;49.020;12.066;2022-08-01T12:43:04;30.20;52.30
8965;DHT22;4517;49.020;12.066;2022-08-01T12:45:34;30.10;52.10
8965;DHT22;4517;49.020;12.066;2022-08-01T12:48:00;30.00;52.20
8965;DHT22;4517;49.020;12.066;2022-08-01T12:50:29;30.10;52.10
8965;DHT22;4517;49.020;12.066;2022-08-01T12:52:56;29.90;52.00
8965;DHT22;4517;49.020;12.066;2022-08-01T12:55:26;29.80;52.00
8965;DHT22;4517;49.020;12.066;2022-08-01T12:58:06;29.60;51.60
8965;DHT22;4517;49.020;12.066;2022-08-01T13:00:33;29.20;51.90
8965;DHT22;4517;49.020;12.066;2022-08-01T13:03:10;28.90;52.20
8965;DHT22;4517;49.020;12.066;2022-08-01T13:05:53;28.90;52.30
8965;DHT22;4517;49.020;12.066;2022-08-01T13:10:49;29.40;52.70
8965;DHT22;4517;49.020;12.066;2022-08-01T13:13:17;29.60;52.50
8965;DHT22;4517;49.020;12.066;2022-08-01T13:15:44;29.80;52.00
8965;DHT22;4517;49.020;12.066;2022-08-01T13:18:30;29.80;51.90
8965;DHT22;4517;49.020;12.066;2022-08-01T13:23:40;29.60;51.50
8965;DHT22;4517;49.020;12.066;2022-08-01T13:26:06;29.60;51.80
8965;DHT22;4517;49.020;12.066;2022-08-01T13:28:33;29.50;51.90
8965;DHT22;4517;49.020;12.066;2022-08-01T13:31:05;29.30;52.10
8965;DHT22;4517;49.020;12.066;2022-08-01T13:33:45;29.00;52.40
8965;DHT22;4517;49.020;12.066;2022-08-01T13:36:12;28.90;52.60
8965;DHT22;4517;49.020;12.066;2022-08-01T13:38:39;28.90;52.60
8965;DHT22;4517;49.020;12.066;2022-08-01T13:41:23;29.20;52.40
8965;DHT22;4517;49.020;12.066;2022-08-01T13:43:48;28.90;51.80
8965;DHT22;4517;49.020;12.066;2022-08-01T13:46:14;28.70;51.90
8965;DHT22;4517;49.020;12.066;2022-08-01T13:48:40;28.70;52.10
8965;DHT22;4517;49.020;12.066;2022-08-01T13:51:06;28.50;52.20
8965;DHT22;4517;49.020;12.066;2022-08-01T13:53:31;28.30;52.10
8965;DHT22;4517;49.020;12.066;2022-08-01T13:55:57;28.20;52.30
8965;DHT22;4517;49.020;12.066;2022-08-01T13:58:23;28.20;52.10
8965;DHT22;4517;49.020;12.066;2022-08-01T14:00:48;28.20;51.70
8965;DHT22;4517;49.020;12.066;2022-08-01T14:03:14;28.20;51.90
8965;DHT22;4517;49.020;12.066;2022-08-01T14:05:42;28.10;51.40
8965;DHT22;4517;49.020;12.066;2022-08-01T14:08:08;28.10;51.80
8965;DHT22;4517;49.020;12.066;2022-08-01T14:10:34;28.20;51.90
8965;DHT22;4517;49.020;12.066;2022-08-01T14:12:59;28.40;51.00
8965;DHT22;4517;49.020;12.066;2022-08-01T14:15:25;28.60;50.90
8965;DHT22;4517;49.020;12.066;2022-08-01T14:17:51;28.70;50.00
8965;DHT22;4517;49.020;12.066;2022-08-01T14:20:17;28.80;50.30
8965;DHT22;4517;49.020;12.066;2022-08-01T14:22:45;28.90;50.40
8965;DHT22;4517;49.020;12.066;2022-08-01T14:25:11;28.90;50.40
8965;DHT22;4517;49.020;12.066;2022-08-01T14:27:36;29.00;50.40
8965;DHT22;4517;49.020;12.066;2022-08-01T14:30:06;29.00;49.90
8965;DHT22;4517;49.020;12.066;2022-08-01T14:32:31;29.00;50.20
8965;DHT22;4517;49.020;12.066;2022-08-01T14:35:01;29.10;49.90
8965;DHT22;4517;49.020;12.066;2022-08-01T14:37:27;29.30;49.20
8965;DHT22;4517;49.020;12.066;2022-08-01T14:39:54;29.30;48.60
8965;DHT22;4517;49.020;12.066;2022-08-01T14:42:20;29.10;48.30
8965;DHT22;4517;49.020;12.066;2022-08-01T14:44:46;29.00;48.60
8965;DHT22;4517;49.020;12.066;2022-08-01T14:47:11;29.10;48.80
8965;DHT22;4517;49.020;12.066;2022-08-01T14:49:37;29.30;48.60
8965;DHT22;4517;49.020;12.066;2022-08-01T14:52:02;29.60;48.80
8965;DHT22;4517;49.020;12.066;2022-08-01T14:54:28;29.90;48.40
8965;DHT22;4517;49.020;12.066;2022-08-01T14:56:53;30.30;48.30
8965;DHT22;4517;49.020;12.066;2022-08-01T14:59:19;30.30;47.90
8965;DHT22;4517;49.020;12.066;2022-08-01T15:01:45;30.30;47.70
8965;DHT22;4517;49.020;12.066;2022-08-01T15:04:11;30.20;47.70
8965;DHT22;4517;49.020;12.066;2022-08-01T15:06:36;30.10;47.30
8965;DHT22;4517;49.020;12.066;2022-08-01T15:09:02;29.90;47.40
8965;DHT22;4517;49.020;12.066;2022-08-01T15:11:28;29.80;47.70
8965;DHT22;4517;49.020;12.066;2022-08-01T15:13:53;29.70;48.00
8965;DHT22;4517;49.020;12.066;2022-08-01T15:16:38;29.80;48.00
8965;DHT22;4517;49.020;12.066;2022-08-01T15:19:03;29.80;47.60
8965;DHT22;4517;49.020;12.066;2022-08-01T15:21:29;29.50;48.30
8965;DHT22;4517;49.020;12.066;2022-08-01T15:23:55;29.40;47.90
8965;DHT22;4517;49.020;12.066;2022-08-01T15:26:20;29.40;48.20
8965;DHT22;4517;49.020;12.066;2022-08-01T15:28:46;29.20;47.80
8965;DHT22;4517;49.020;12.066;2022-08-01T15:31:11;29.20;48.00
8965;DHT22;4517;49.020;12.066;2022-08-01T15:33:37;29.30;48.20
8965;DHT22;4517;49.020;12.066;2022-08-01T15:36:03;29.30;48.20
8965;DHT22;4517;49.020;12.066;2022-08-01T15:38:29;29.20;48.10
8965;DHT22;4517;49.020;12.066;2022-08-01T15:40:55;29.30;48.50
8965;DHT22;4517;49.020;12.066;2022-08-01T15:43:20;29.30;48.90
8965;DHT22;4517;49.020;12.066;2022-08-01T15:45:46;29.40;49.40
8965;DHT22;4517;49.020;12.066;2022-08-01T15:48:11;29.30;49.20
8965;DHT22;4517;49.020;12.066;2022-08-01T15:50:37;29.60;49.30
8965;DHT22;4517;49.020;12.066;2022-08-01T15:53:04;29.70;49.40
8965;DHT22;4517;49.020;12.066;2022-08-01T15:55:30;29.50;49.30
8965;DHT22;4517;49.020;12.066;2022-08-01T15:57:55;29.40;49.60
8965;DHT22;4517;49.020;12.066;2022-08-01T16:00:21;29.60;49.70
8965;DHT22;4517;49.020;12.066;2022-08-01T16:02:47;29.40;50.10
8965;DHT22;4517;49.020;12.066;2022-08-01T16:05:12;29.30;49.80
8965;DHT22;4517;49.020;12.066;2022-08-01T16:07:38;29.10;49.90
8965;DHT22;4517;49.020;12.066;2022-08-01T16:10:05;29.00;50.20
8965;DHT22;4517;49.020;12.066;2022-08-01T16:12:31;29.00;50.80
8965;DHT22;4517;49.020;12.066;2022-08-01T16:14:57;29.00;50.70
8965;DHT22;4517;49.020;12.066;2022-08-01T16:17:22;29.20;50.60
8965;DHT22;4517;49.020;12.066;2022-08-01T16:19:48;29.30;50.20
8965;DHT22;4517;49.020;12.066;2022-08-01T16:22:15;29.10;50.10